Aérodrome :
LOGIN :

S'inscrire | Disclaimer

   EN    FR    IT 

 










Légende :    VFR   VFR Marginal   IFR   IFR Intensif   IFR Très Intensif
Visi : 
Plafond : 
>= 8 km
>= 3000ft
5 à 8 km
1000 à 3000 ft
1500m à 5 km
500 à 1000 ft
800 à 1500m
200 à 500 ft
< 800m
< 200 ft
Symboles :   Orages  Brouillard  Fortes neiges  Fortes précipitations  Vent > 20 kt
SIGMETs :   Divers  Orages  Givrage  Turbulence  Onde Orograph.  Cendres Volcan.






- Altitude de l'aérodrome : 240 ft
- Code IATA : VLC


LEVC - Valencia Manises

DERNIER METAR :
  • 220800Z VRB02KT CAVOK 26/12 Q1019 NOSIG

METARs EXPIRÉS :
  • 220730Z VRB02KT CAVOK 24/12 Q1020 NOSIG
  • 220700Z VRB02KT CAVOK 23/12 Q1020 NOSIG
  • 220630Z 26001KT CAVOK 23/12 Q1019 NOSIG
  • 220600Z VRB02KT CAVOK 21/12 Q1019 NOSIG
  • 220530Z 31005KT CAVOK 20/12 Q1019 NOSIG
  • 220500Z 26003KT CAVOK 19/13 Q1019 NOSIG
  • 220430Z 27003KT CAVOK 18/13 Q1019 NOSIG
  • 220400Z 26004KT 220V310 CAVOK 20/12 Q1019 NOSIG
  • 220330Z 23003KT CAVOK 19/13 Q1019 NOSIG

TAF TAF LEVC
Valide du 22 à 06h jusqu'au 23 à 06h UTC


220500Z 2206/2306 VRB04KT CAVOK TX33/2212Z TN21/2305Z
BECMG 2210/2212 12012KT
TEMPO 2218/2224 05010KT
BECMG 2300/2302 VRB04KT



MET'MAP, la Météo Aéronautique d'un coup d'oeil ! - Copyright ORBIFLY Décembre 2007 - Disclaimer

ORBIFLY MET'MAP TEAM :

Programmation & Développement : Alexandra Zaïnal
Sur une idée originale de : Baudouin d'Aumeries
Soutien technique & logistique : Manuel Goepfert
Assistance : Marc-Olivier Méhu




SOURCES & CREDITS :

   NOAA